• Join FlightAware (Why Join?)
  • Login
  • US Flag 
06:56PM EDT


 

Airport Tracker/Info


-or-


 

Live Flight TrackerFlight Track Log ✈ ASQ5848 ✈ 27-Apr-2013 ✈ KORD - CYOW

Flight Track Log - Related Links

Times and Time Zones

All times are in EDT time to prevent confusion due to time zone crossing. See the ASQ5848 flight status page for this flight to view local times or setup timezone preferences in your user account.

Time Position Orientation Groundspeed Altitude Reporting Facility
EDT Latitude Longitude Course Direction KTS MPH feet Rate Location/Type
10:44AM 41.9333 -87.9000 124° Southeast 154 177 2,000  Level Chicago TRACON
10:45AM 41.9167 -87.8667 124° Southeast 201 231 4,000 1,080 Climbing Chicago TRACON
10:47AM 41.9544 -87.7269 70° East 249 287 5,000 840 Climbing Chicago Center
10:48AM 41.9942 -87.6167 64° Northeast 269 310 6,400 1,800 Climbing Chicago Center
10:49AM 42.0281 -87.5261 63° Northeast 272 313 8,700 2,040 Climbing Chicago Center
10:50AM 42.0761 -87.4383 54° Northeast 289 333 10,700 1,620 Climbing Chicago Center
10:51AM 42.1244 -87.3478 54° Northeast 297 342 12,100 960 Climbing Chicago Center
10:52AM 42.1819 -87.2419 54° Northeast 343 395 12,700 900 Climbing Chicago Center
10:53AM 42.2417 -87.1314 54° Northeast 362 417 14,000 1,440 Climbing Chicago Center
10:54AM 42.2817 -86.9819 70° East 364 419 15,700 1,500 Climbing Chicago Center
10:55AM 42.2869 -86.8431 87° East 367 422 17,200 1,200 Climbing Chicago Center
10:56AM 42.2928 -86.7069 87° East 366 421 18,300 1,200 Climbing Chicago Center
10:57AM 42.2972 -86.5822 87° East 367 422 19,700 1,500 Climbing Chicago Center
10:59AM 42.3039 -86.4247 87° East 369 425 21,400 1,500 Climbing Chicago Center
11:00AM 42.3089 -86.2864 87° East 370 426 22,800 1,380 Climbing Chicago Center
11:01AM 42.3139 -86.1489 87° East 371 427 24,300 1,380 Climbing Chicago Center
11:02AM 42.3144 -86.0111 90° East 370 426 25,700 1,500 Climbing Chicago Center
11:03AM 42.3122 -85.8469 91° East 367 422 27,400 1,380 Climbing Chicago Center
11:04AM 42.3103 -85.7100 91° East 368 423 28,600 960 Climbing Chicago Center
11:05AM 42.3086 -85.5722 91° East 369 425 29,400 780 Climbing Chicago Center
11:06AM 42.3069 -85.4275 91° East 382 440 30,200 720 Climbing Chicago Center
11:07AM 42.3042 -85.2781 91° East 395 455 30,900 720 Climbing Chicago Center
11:08AM 42.3022 -85.1264 91° East 403 464 31,700 780 Climbing Chicago Center
11:09AM 42.2986 -84.9725 92° East 409 471 32,500 600 Climbing Chicago Center
11:10AM 42.3017 -84.7975 89° East 412 474 33,000 240 Climbing Cleveland Center
11:11AM 42.3242 -84.6333 79° East 417 480 33,000 240 Level Cleveland Center
11:12AM 42.3611 -84.4669 73° East 440 506 33,500 960 Climbing Cleveland Center
11:13AM 42.3956 -84.3089 74° East 445 512 35,000 720 Climbing Cleveland Center
11:14AM 42.4319 -84.1506 73° East 445 512 35,000  Level Cleveland Center
11:15AM 42.4683 -83.9836 73° East 451 519 35,000  Level Cleveland Center
11:16AM 42.5022 -83.8164 75° East 451 519 35,000  Level Cleveland Center
11:17AM 42.5403 -83.6492 73° East 451 519 35,000  Level Cleveland Center
11:18AM 42.5739 -83.4789 75° East 451 519 35,000  Level Cleveland Center
11:19AM 42.6092 -83.3114 74° East 451 519 35,000  Level Cleveland Center
11:20AM 42.6444 -83.1433 74° East 451 519 35,000  Level Cleveland Center
11:21AM 42.6792 -82.9725 74° East 456 525 35,000  Level Cleveland Center
11:22AM 42.7161 -82.8014 74° East 461 531 35,000  Level Cleveland Center
11:23AM 42.7606 -82.6419 69° East 455 524 35,000  Level Cleveland Center
11:24AM 42.8114 -82.4850 66° East 450 518 35,000  Level Cleveland Center
11:25AM 42.8617 -82.3308 66° East 450 518 35,000  Level Cleveland Center
11:26AM 42.9139 -82.1764 65° Northeast 450 518 35,000  Level Cleveland Center
11:26AM 42.9167 -82.1167 86° East 450 518 35,000  Level Toronto Center
11:27AM 42.9667 -81.9500 68° East 450 518 35,000  Level Toronto Center
11:28AM 43.0333 -81.8000 59° Northeast 450 518 35,000  Level Toronto Center
11:29AM 43.0667 -81.6333 75° East 450 518 35,000  Level Toronto Center
11:30AM 43.1167 -81.4833 65° Northeast 450 518 35,000  Level Toronto Center
11:31AM 43.1667 -81.3167 68° East 460 529 35,000  Level Toronto Center
11:32AM 43.2167 -81.1667 65° Northeast 460 529 35,000  Level Toronto Center
11:33AM 43.2667 -81.0000 68° East 450 518 35,000  Level Toronto Center
11:34AM 43.3167 -80.8500 65° Northeast 450 518 35,000  Level Toronto Center
11:35AM 43.3667 -80.6833 68° East 440 506 35,000  Level Toronto Center
11:36AM 43.4167 -80.5333 65° Northeast 440 506 35,000  Level Toronto Center
11:37AM 43.4667 -80.3833 65° Northeast 440 506 35,000  Level Toronto Center
11:38AM 43.5167 -80.2000 69° East 440 506 35,000  Level Toronto Center
11:39AM 43.5500 -80.0667 71° East 440 506 35,000  Level Toronto Center
11:40AM 43.6000 -79.9333 63° Northeast 430 495 35,000  Level Toronto Center
11:41AM 43.6500 -79.7667 67° East 430 495 35,000  Level Toronto Center
11:42AM 43.6833 -79.6167 73° East 430 495 35,000  Level Toronto Center
11:43AM 43.7333 -79.4500 67° East 430 495 35,000  Level Toronto Center
11:44AM 43.7833 -79.3167 63° Northeast 430 495 35,000  Level Toronto Center
11:45AM 43.8333 -79.1500 67° East 430 495 35,000  Level Toronto Center
11:46AM 43.8667 -78.9833 74° East 430 495 35,000  Level Toronto Center
11:47AM 43.9167 -78.8500 62° Northeast 430 495 35,000  Level Toronto Center
11:48AM 43.9667 -78.6833 67° East 430 495 35,000  Level Toronto Center
11:49AM 44.0000 -78.5167 74° East 430 495 35,000  Level Toronto Center
11:50AM 44.0333 -78.3833 71° East 430 495 35,000  Level Toronto Center
11:51AM 44.0833 -78.2167 67° East 420 483 35,000  Level Toronto Center
11:52AM 44.1167 -78.0833 71° East 430 495 35,000  Level Toronto Center
11:53AM 44.1833 -77.9167 61° Northeast 420 483 35,000  Level Toronto Center
11:54AM 44.2500 -77.8000 51° Northeast 420 483 35,000 -660 Level Toronto Center
11:55AM 44.3167 -77.6333 61° Northeast 440 506 33,700 -1,620 Descending Toronto Center
11:56AM 44.3833 -77.5167 51° Northeast 420 483 31,800 -1,980 Descending Toronto Center
11:57AM 44.4333 -77.3667 65° Northeast 410 472 29,800 -1,980 Descending Toronto Center
11:57AM 44.4500 -77.3667 360° North 410 472 29,300 -2,220 Descending Montreal Center
11:58AM 44.5167 -77.2167 58° Northeast 420 483 27,000 -2,400 Descending Montreal Center
11:59AM 44.5833 -77.1000 51° Northeast 430 495 24,600 -2,460 Descending Montreal Center
12:00PM 44.6500 -76.9333 61° Northeast 430 495 22,100 -2,220 Descending Montreal Center
12:01PM 44.7167 -76.8167 51° Northeast 420 483 20,200 -1,980 Descending Montreal Center
12:02PM 44.7833 -76.6833 55° Northeast 420 483 18,200 -1,680 Descending Montreal Center
12:03PM 44.8167 -76.5500 71° East 410 472 17,400 -1,260 Descending Toronto Center
12:04PM 44.8833 -76.4333 51° Northeast 390 449 16,100 -1,140 Descending Toronto Center
12:05PM 44.9500 -76.3167 51° Northeast 390 449 15,200 -1,020 Descending Toronto Center
12:05PM 44.9667 -76.3000 35° Northeast 390 449 14,800 -1,020 Descending Montreal Center
12:06PM 45.0333 -76.1833 51° Northeast 390 449 13,900 -840 Descending Montreal Center
12:07PM 45.1000 -76.0667 51° Northeast 330 380 13,200 -720 Descending Montreal Center
12:08PM 45.1333 -76.0000 55° Northeast 250 288 12,500 -900 Descending Montreal Center
12:09PM 45.1833 -75.9167 50° Northeast 260 299 11,400 -780 Descending Montreal Center
12:10PM 45.1667 -75.8000 101° East 270 311 11,000 -960 Descending Montreal Center
12:11PM 45.1500 -75.7000 103° East 260 299 9,500 -1,200 Descending Montreal Center
12:12PM 45.1333 -75.6167 106° East 250 288 8,700 -960 Descending Montreal Center
12:13PM 45.1167 -75.5167 103° East 240 276 7,600 -1,440 Descending Montreal Center
12:14PM 45.1000 -75.4167 103° East 240 276 5,900 -1,740 Descending Montreal Center
12:15PM 45.1333 -75.3667 47° Northeast 240 276 4,200 -960 Descending Montreal Center
12:16PM 45.1667 -75.4167 313° West 220 253 4,000 -480 Descending Montreal Center
12:17PM 45.2167 -75.5000 310° West 220 253 3,300 -960 Descending Montreal Center
12:18PM 45.2500 -75.5667 305° West 200 230 2,100 -1,080 Descending Montreal Center
12:19PM 45.2667 -75.6167 295° West 150 173 1,200 -900 Descending Montreal Center
12:20PM 45.3000 -75.6667 313° West 130 150 400 -840 Descending Montreal Center